createdAt,value
2023-04-03T00:08:24.058Z,998.3
2023-04-03T00:13:43.822Z,998.4
2023-04-03T00:24:20.923Z,998.5
2023-04-03T00:34:59.264Z,998.5
2023-04-03T00:40:18.554Z,998.6
2023-04-03T00:50:56.778Z,998.5
2023-04-03T00:56:41.300Z,998.4
2023-04-03T01:07:20.659Z,998.3
2023-04-03T01:12:39.516Z,998.3
2023-04-03T01:23:18.660Z,998.4
2023-04-03T01:28:37.676Z,998.4
2023-04-03T01:39:16.307Z,998.5
2023-04-03T01:49:55.170Z,998.5
2023-04-03T01:55:14.043Z,998.6
2023-04-03T02:05:53.162Z,998.7
2023-04-03T02:11:12.365Z,998.7
2023-04-03T02:21:51.491Z,998.7
2023-04-03T02:37:50.383Z,998.7
2023-04-03T02:48:28.351Z,998.8
2023-04-03T02:53:47.892Z,998.8
2023-04-03T03:04:25.612Z,998.8
2023-04-03T03:20:24.203Z,998.8
2023-04-03T03:31:03.159Z,998.7
2023-04-03T03:36:22.469Z,998.8
2023-04-03T03:47:00.661Z,998.7
2023-04-03T04:02:59.555Z,998.7
2023-04-03T04:13:38.024Z,998.7
2023-04-03T04:18:57.196Z,998.6
2023-04-03T04:29:35.494Z,998.7
2023-04-03T04:34:54.466Z,998.7
2023-04-03T04:40:13.585Z,998.7
2023-04-03T04:45:33.474Z,998.6
2023-04-03T04:56:12.336Z,998.8
2023-04-03T05:01:31.370Z,998.8
2023-04-03T05:12:09.637Z,998.8
2023-04-03T05:17:28.748Z,998.8
2023-04-03T05:28:06.643Z,998.9
2023-04-03T05:33:25.966Z,998.8
2023-04-03T05:49:24.141Z,999
2023-04-03T05:54:43.102Z,999
2023-04-03T06:05:22.330Z,999
2023-04-03T06:21:20.548Z,999.1
2023-04-03T06:31:59.276Z,999.2
2023-04-03T06:37:18.598Z,999.3
2023-04-03T06:47:56.886Z,999.4
2023-04-03T06:53:16.392Z,999.5
2023-04-03T06:58:35.739Z,999.6
2023-04-03T07:03:55.161Z,999.5
2023-04-03T07:14:33.485Z,999.6
2023-04-03T07:19:53.067Z,999.7
2023-04-03T07:30:31.716Z,999.8
2023-04-03T07:35:51.313Z,999.8
2023-04-03T07:46:29.472Z,999.8
2023-04-03T08:02:27.625Z,999.9
2023-04-03T08:13:05.705Z,999.9
2023-04-03T08:18:25.240Z,999.8
2023-04-03T08:29:04.039Z,1000
2023-04-03T08:34:22.970Z,999.9
2023-04-03T08:39:42.158Z,999.9
2023-04-03T08:45:01.316Z,1000
2023-04-03T08:55:40.131Z,1000.1
2023-04-03T09:00:59.113Z,1000.1
2023-04-03T09:11:37.490Z,1000.1
2023-04-03T09:27:35.310Z,1000.1
2023-04-03T09:38:13.657Z,1000.1
2023-04-03T09:43:33.036Z,1000
2023-04-03T09:54:11.603Z,1000
2023-04-03T09:59:30.408Z,1000
2023-04-03T10:04:58.921Z,999.9
2023-04-03T10:10:08.144Z,999.9
2023-04-03T10:20:46.038Z,999.8
2023-04-03T10:26:04.904Z,999.7
2023-04-03T10:36:44.130Z,999.7
2023-04-03T10:42:15.609Z,999.8
2023-04-03T10:52:41.817Z,999.6
2023-04-03T11:03:20.203Z,999.7
2023-04-03T11:08:39.836Z,999.7
2023-04-03T11:15:13.948Z,999.6
2023-04-03T11:19:20.457Z,999.5
2023-04-03T11:24:39.977Z,999.5
2023-04-03T11:35:19.042Z,999.4
2023-04-03T11:45:57.410Z,999.5
2023-04-03T11:51:17.026Z,999.5
2023-04-03T12:01:55.230Z,999.3
2023-04-03T12:07:14.600Z,999.3
2023-04-03T12:17:53.296Z,999.2
2023-04-03T12:23:12.511Z,999.3
2023-04-03T12:28:31.691Z,999.1
2023-04-03T12:39:09.789Z,999.1
2023-04-03T12:44:28.696Z,999.1
2023-04-03T12:55:06.548Z,998.9
2023-04-03T13:00:26.279Z,998.8
2023-04-03T13:11:04.464Z,999
2023-04-03T13:21:42.243Z,998.9
2023-04-03T13:27:01.012Z,998.7
2023-04-03T13:37:38.819Z,998.9
2023-04-03T13:42:58.083Z,998.6
2023-04-03T13:53:36.708Z,998.7
2023-04-03T14:04:14.608Z,998.6
2023-04-03T14:09:33.954Z,998.7
2023-04-03T14:20:12.875Z,998.6
2023-04-03T14:25:32.595Z,998.6
2023-04-03T14:36:12.461Z,998.4
2023-04-03T14:41:32.088Z,998.3
2023-04-03T14:52:10.489Z,998.4
2023-04-03T15:02:49.460Z,998.3
2023-04-03T15:08:08.691Z,998.3
2023-04-03T15:18:47.491Z,998.4
2023-04-03T15:24:06.412Z,998.3
2023-04-03T15:29:25.538Z,998.3
2023-04-03T15:34:44.978Z,998.3
2023-04-03T15:45:22.995Z,998.3
2023-04-03T15:50:41.866Z,998.4
2023-04-03T16:01:20.165Z,998.3
2023-04-03T16:06:39.537Z,998.3
2023-04-03T16:17:18.191Z,998.3
2023-04-03T16:27:56.641Z,998.4
2023-04-03T16:33:15.793Z,998.5
2023-04-03T16:43:55.182Z,998.4
2023-04-03T16:49:14.686Z,998.5
2023-04-03T16:59:52.882Z,998.5
2023-04-03T17:10:31.157Z,998.6
2023-04-03T17:15:50.255Z,998.6
2023-04-03T17:26:28.946Z,998.7
2023-04-03T17:31:54.279Z,998.7
2023-04-03T17:42:27.250Z,998.8
2023-04-03T17:47:47.011Z,998.8
2023-04-03T17:58:25.372Z,998.8
2023-04-03T18:09:03.834Z,998.9
2023-04-03T18:14:23.020Z,999
2023-04-03T18:25:01.999Z,999.2
2023-04-03T18:30:21.176Z,999.2
2023-04-03T18:35:40.035Z,999.3
2023-04-03T18:36:48.059Z,999.3
2023-04-03T18:41:34.076Z,999.3
2023-04-03T18:46:53.396Z,999.3
2023-04-03T18:57:32.353Z,999.4
2023-04-03T19:02:51.203Z,999.5
2023-04-03T19:13:29.671Z,999.5
2023-04-03T19:24:09.300Z,999.5
2023-04-03T19:34:47.223Z,999.6
2023-04-03T19:40:06.937Z,999.7
2023-04-03T19:50:45.426Z,999.7
2023-04-03T20:01:23.695Z,999.7
2023-04-03T20:06:42.895Z,999.6
2023-04-03T20:17:21.429Z,999.8
2023-04-03T20:22:40.401Z,999.8
2023-04-03T20:33:18.982Z,999.9
2023-04-03T20:49:17.042Z,999.9
2023-04-03T20:59:55.165Z,1000
2023-04-03T21:05:14.836Z,999.9
2023-04-03T21:11:48.991Z,999.9
2023-04-03T21:15:54.237Z,999.9
2023-04-03T21:31:52.051Z,999.9
2023-04-03T21:42:30.089Z,999.9
2023-04-03T21:47:49.916Z,999.8
2023-04-03T21:58:29.170Z,999.9
2023-04-03T22:14:25.913Z,999.9
2023-04-03T22:25:04.449Z,999.9
2023-04-03T22:30:23.439Z,999.8
2023-04-03T22:41:01.553Z,999.7
2023-04-03T22:46:21.158Z,999.7
2023-04-03T22:56:59.764Z,999.7
2023-04-03T23:07:38.670Z,999.8
2023-04-03T23:12:57.762Z,999.7
2023-04-03T23:23:36.463Z,999.8
2023-04-03T23:28:56.231Z,999.8
2023-04-03T23:35:30.444Z,999.8
2023-04-03T23:39:35.888Z,999.7
2023-04-03T23:50:14.290Z,999.7
2023-04-03T23:55:33.909Z,999.7
